KOLY/OLY METAR and TAF weather

Enter ICAO airport designator
Station Type Date Time Source
KOLY METAR 2018/12/17 16:35 UTC NOAA

KOLY 171635Z AUTO 29005KT 10SM CLR 05/M01 A3026 RMK AO2 T00511012


Station Type Date Time Source
KOLY Decoded METAR 2018/12/17 16:35 UTC NOAA

Olney-Noble, Olney-Noble Airport, IL, United States (KOLY) 38-43-19N 088-10-35W
Dec 17, 2018 - 11:35 AM EST / 2018.12.17 1635 UTC
Wind: from the WNW (290 degrees) at 6 MPH (5 KT):0
Visibility: 10 mile(s):0
Sky conditions: clear
Temperature: 41.2 F (5.1 C)
Dew Point: 29.8 F (-1.2 C)
Relative Humidity: 63%
Pressure (altimeter): 30.26 in. Hg (1024 hPa)
ob: KOLY 171635Z AUTO 29005KT 10SM CLR 05/M01 A3026 RMK AO2 T00511012
cycle: 16

Station Type Date Time Source
KOLY TAF UTC NOAA

Error!


Example: see airport list